sensor_id;sensor_type;location;lat;lon;timestamp;pressure;altitude;pressure_sealevel;temperature;humidity
54248;BME280;40161;39.768;2.722;2022-11-15T00:04:00;101265.50;;;18.31;80.39
54248;BME280;40161;39.768;2.722;2022-11-15T00:09:47;101291.25;;;18.38;80.78
54248;BME280;40161;39.768;2.722;2022-11-15T00:15:36;101278.94;;;18.36;81.26
54248;BME280;40161;39.768;2.722;2022-11-15T00:21:23;101305.94;;;18.39;80.56
54248;BME280;40161;39.768;2.722;2022-11-15T00:27:10;101263.31;;;17.93;80.67
54248;BME280;40161;39.768;2.722;2022-11-15T00:33:02;101253.03;;;17.83;80.53
54248;BME280;40161;39.768;2.722;2022-11-15T00:42:11;101290.28;;;17.89;81.76
54248;BME280;40161;39.768;2.722;2022-11-15T00:47:58;101284.72;;;17.86;81.46
54248;BME280;40161;39.768;2.722;2022-11-15T00:53:45;101248.78;;;17.39;82.42
54248;BME280;40161;39.768;2.722;2022-11-15T00:59:32;101278.50;;;17.46;83.82
54248;BME280;40161;39.768;2.722;2022-11-15T01:05:20;101236.50;;;17.29;83.10
54248;BME280;40161;39.768;2.722;2022-11-15T01:18:03;101275.75;;;17.28;85.04
54248;BME280;40161;39.768;2.722;2022-11-15T01:30:35;101262.69;;;17.28;86.30
54248;BME280;40161;39.768;2.722;2022-11-15T01:36:23;101247.63;;;17.22;85.29
54248;BME280;40161;39.768;2.722;2022-11-15T01:42:14;101234.56;;;17.16;84.67
54248;BME280;40161;39.768;2.722;2022-11-15T01:48:01;101227.84;;;17.06;85.25
54248;BME280;40161;39.768;2.722;2022-11-15T01:53:51;101226.66;;;16.93;86.48
54248;BME280;40161;39.768;2.722;2022-11-15T01:59:45;101233.00;;;17.00;86.21
54248;BME280;40161;39.768;2.722;2022-11-15T02:29:02;101212.81;;;16.82;86.68
54248;BME280;40161;39.768;2.722;2022-11-15T02:32:04;101211.22;;;16.88;85.46
54248;BME280;40161;39.768;2.722;2022-11-15T02:37:57;101212.41;;;16.91;85.57
54248;BME280;40161;39.768;2.722;2022-11-15T02:44:01;101191.81;;;16.95;84.76
54248;BME280;40161;39.768;2.722;2022-11-15T02:53:11;101171.66;;;16.80;86.37
54248;BME280;40161;39.768;2.722;2022-11-15T02:55:46;101139.56;;;16.65;84.80
54248;BME280;40161;39.768;2.722;2022-11-15T03:08:01;101158.56;;;16.63;85.88
54248;BME280;40161;39.768;2.722;2022-11-15T03:31:51;101149.06;;;16.64;85.73
54248;BME280;40161;39.768;2.722;2022-11-15T03:44:40;101124.13;;;16.78;83.31
54248;BME280;40161;39.768;2.722;2022-11-15T03:50:30;101120.97;;;16.76;83.84
54248;BME280;40161;39.768;2.722;2022-11-15T03:56:15;101121.34;;;16.68;84.20
54248;BME280;40161;39.768;2.722;2022-11-15T04:08:47;101108.31;;;16.36;85.25
54248;BME280;40161;39.768;2.722;2022-11-15T04:11:21;101107.53;;;16.35;84.57
54248;BME280;40161;39.768;2.722;2022-11-15T04:24:17;101118.63;;;16.28;84.25
54248;BME280;40161;39.768;2.722;2022-11-15T04:26:46;101117.03;;;16.34;84.92
54248;BME280;40161;39.768;2.722;2022-11-15T04:39:19;101096.81;;;16.63;81.94
54248;BME280;40161;39.768;2.722;2022-11-15T04:45:09;101091.28;;;16.45;83.31
54248;BME280;40161;39.768;2.722;2022-11-15T04:51:18;101082.56;;;16.57;82.89
54248;BME280;40161;39.768;2.722;2022-11-15T04:54:11;101092.09;;;16.56;82.23
54248;BME280;40161;39.768;2.722;2022-11-15T05:03:27;101062.81;;;16.30;83.14
54248;BME280;40161;39.768;2.722;2022-11-15T05:09:40;101069.13;;;16.55;82.51
54248;BME280;40161;39.768;2.722;2022-11-15T05:15:25;101088.16;;;16.32;84.11
54248;BME280;40161;39.768;2.722;2022-11-15T05:18:02;101080.22;;;16.37;83.97
54248;BME280;40161;39.768;2.722;2022-11-15T05:20:46;101071.91;;;16.27;84.72
54248;BME280;40161;39.768;2.722;2022-11-15T05:35:42;101093.25;;;16.69;82.14
54248;BME280;40161;39.768;2.722;2022-11-15T05:41:54;101091.69;;;16.50;83.86
54248;BME280;40161;39.768;2.722;2022-11-15T05:47:44;101072.28;;;16.50;83.04
54248;BME280;40161;39.768;2.722;2022-11-15T05:53:44;101086.50;;;16.70;82.34
54248;BME280;40161;39.768;2.722;2022-11-15T06:02:56;101083.75;;;16.63;81.69
54248;BME280;40161;39.768;2.722;2022-11-15T06:12:08;101051.72;;;16.37;80.92
54248;BME280;40161;39.768;2.722;2022-11-15T06:17:56;101062.81;;;16.12;84.24
54248;BME280;40161;39.768;2.722;2022-11-15T06:27:10;101032.38;;;16.05;82.44
54248;BME280;40161;39.768;2.722;2022-11-15T06:32:59;101098.00;;;16.54;82.58
54248;BME280;40161;39.768;2.722;2022-11-15T06:42:08;101067.19;;;16.38;82.46
54248;BME280;40161;39.768;2.722;2022-11-15T06:47:56;101096.41;;;16.60;82.40
54248;BME280;40161;39.768;2.722;2022-11-15T06:53:43;101087.72;;;16.62;81.59
54248;BME280;40161;39.768;2.722;2022-11-15T06:59:30;101085.75;;;16.55;83.06
54248;BME280;40161;39.768;2.722;2022-11-15T07:05:17;101084.13;;;16.65;83.10
54248;BME280;40161;39.768;2.722;2022-11-15T07:17:40;101076.63;;;16.58;83.29
54248;BME280;40161;39.768;2.722;2022-11-15T07:20:23;101103.53;;;16.90;82.44
54248;BME280;40161;39.768;2.722;2022-11-15T07:26:10;101099.94;;;16.97;82.85
54248;BME280;40161;39.768;2.722;2022-11-15T07:31:57;101096.75;;;16.98;82.80
54248;BME280;40161;39.768;2.722;2022-11-15T07:38:01;101076.19;;;16.89;82.74
54248;BME280;40161;39.768;2.722;2022-11-15T07:47:10;101083.25;;;17.15;82.28
54248;BME280;40161;39.768;2.722;2022-11-15T07:52:58;101103.34;;;17.33;82.39
54248;BME280;40161;39.768;2.722;2022-11-15T07:58:46;101093.44;;;17.39;80.60
54248;BME280;40161;39.768;2.722;2022-11-15T08:04:33;101102.88;;;17.52;81.21
54248;BME280;40161;39.768;2.722;2022-11-15T08:10:21;101093.78;;;17.52;81.66
54248;BME280;40161;39.768;2.722;2022-11-15T08:16:08;101096.09;;;17.61;81.95
54248;BME280;40161;39.768;2.722;2022-11-15T08:29:12;101101.56;;;17.78;82.60
54248;BME280;40161;39.768;2.722;2022-11-15T08:35:00;101080.91;;;17.83;82.19
54248;BME280;40161;39.768;2.722;2022-11-15T08:40:47;101096.28;;;17.95;82.80
54248;BME280;40161;39.768;2.722;2022-11-15T08:46:34;101070.91;;;17.96;82.60
54248;BME280;40161;39.768;2.722;2022-11-15T08:52:22;101075.53;;;18.14;79.43
54248;BME280;40161;39.768;2.722;2022-11-15T08:58:09;101079.16;;;18.52;75.24
54248;BME280;40161;39.768;2.722;2022-11-15T09:03:56;101055.94;;;18.73;73.19
54248;BME280;40161;39.768;2.722;2022-11-15T09:16:27;101077.34;;;19.72;72.06
54248;BME280;40161;39.768;2.722;2022-11-15T09:22:14;101079.50;;;19.87;69.73
54248;BME280;40161;39.768;2.722;2022-11-15T09:31:22;101084.75;;;19.82;69.90
54248;BME280;40161;39.768;2.722;2022-11-15T09:40:37;101097.66;;;19.96;71.07
54248;BME280;40161;39.768;2.722;2022-11-15T09:49:15;101112.22;;;20.07;68.24
54248;BME280;40161;39.768;2.722;2022-11-15T09:51:49;101128.28;;;20.23;67.67
54248;BME280;40161;39.768;2.722;2022-11-15T09:54:39;101082.94;;;19.95;68.18
54248;BME280;40161;39.768;2.722;2022-11-15T10:00:33;101073.81;;;19.95;66.99
54248;BME280;40161;39.768;2.722;2022-11-15T10:03:14;101121.22;;;20.42;67.97
54248;BME280;40161;39.768;2.722;2022-11-15T10:05:46;101102.78;;;20.24;64.76
54248;BME280;40161;39.768;2.722;2022-11-15T10:11:07;101096.59;;;20.36;65.23
54248;BME280;40161;39.768;2.722;2022-11-15T10:13:41;101109.28;;;20.18;64.99
54248;BME280;40161;39.768;2.722;2022-11-15T10:22:46;101090.41;;;20.02;67.56
54248;BME280;40161;39.768;2.722;2022-11-15T10:25:33;101074.81;;;19.81;68.45
54248;BME280;40161;39.768;2.722;2022-11-15T10:28:17;101106.41;;;19.98;66.80
54248;BME280;40161;39.768;2.722;2022-11-15T10:30:51;101053.81;;;19.76;65.71
54248;BME280;40161;39.768;2.722;2022-11-15T10:33:38;101081.69;;;20.00;65.12
54248;BME280;40161;39.768;2.722;2022-11-15T10:36:20;101072.13;;;20.01;65.04
54248;BME280;40161;39.768;2.722;2022-11-15T10:38:56;101075.28;;;20.03;65.48
54248;BME280;40161;39.768;2.722;2022-11-15T10:41:37;101042.94;;;20.09;64.73
54248;BME280;40161;39.768;2.722;2022-11-15T10:49:33;101032.56;;;20.09;65.33
54248;BME280;40161;39.768;2.722;2022-11-15T10:52:18;101025.38;;;20.12;65.19
54248;BME280;40161;39.768;2.722;2022-11-15T10:54:55;101034.28;;;20.27;64.49
54248;BME280;40161;39.768;2.722;2022-11-15T10:57:29;101029.97;;;20.22;64.87
54248;BME280;40161;39.768;2.722;2022-11-15T11:00:03;101019.41;;;20.33;63.52
54248;BME280;40161;39.768;2.722;2022-11-15T11:02:36;101026.84;;;20.40;64.13
54248;BME280;40161;39.768;2.722;2022-11-15T11:05:35;101020.56;;;20.36;65.01
54248;BME280;40161;39.768;2.722;2022-11-15T11:08:21;100994.59;;;20.19;64.91
54248;BME280;40161;39.768;2.722;2022-11-15T11:10:58;100973.53;;;20.18;62.83
54248;BME280;40161;39.768;2.722;2022-11-15T11:13:37;101009.91;;;20.54;63.22
54248;BME280;40161;39.768;2.722;2022-11-15T11:19:03;100991.13;;;20.58;62.31
54248;BME280;40161;39.768;2.722;2022-11-15T11:22:03;101003.19;;;20.52;61.16
54248;BME280;40161;39.768;2.722;2022-11-15T11:30:15;100984.88;;;20.51;60.60
54248;BME280;40161;39.768;2.722;2022-11-15T11:33:42;100958.63;;;20.48;60.22
54248;BME280;40161;39.768;2.722;2022-11-15T11:41:13;100973.16;;;20.59;60.38
54248;BME280;40161;39.768;2.722;2022-11-15T11:49:09;100955.06;;;20.68;60.65
54248;BME280;40161;39.768;2.722;2022-11-15T11:51:49;100934.91;;;20.60;60.68
54248;BME280;40161;39.768;2.722;2022-11-15T11:54:29;100941.78;;;20.75;59.68
54248;BME280;40161;39.768;2.722;2022-11-15T11:56:57;100968.28;;;20.83;60.21
54248;BME280;40161;39.768;2.722;2022-11-15T11:59:42;100954.41;;;20.80;60.03
54248;BME280;40161;39.768;2.722;2022-11-15T12:02:35;100945.84;;;20.71;59.25
54248;BME280;40161;39.768;2.722;2022-11-15T12:07:41;100930.97;;;20.77;59.05
54248;BME280;40161;39.768;2.722;2022-11-15T12:15:40;100894.81;;;20.54;60.51
54248;BME280;40161;39.768;2.722;2022-11-15T12:18:12;100902.69;;;20.59;59.50
54248;BME280;40161;39.768;2.722;2022-11-15T12:20:41;100901.84;;;20.78;59.11
54248;BME280;40161;39.768;2.722;2022-11-15T12:23:20;100897.78;;;20.83;59.41
54248;BME280;40161;39.768;2.722;2022-11-15T12:26:08;100899.09;;;20.95;58.13
54248;BME280;40161;39.768;2.722;2022-11-15T12:34:02;100890.28;;;20.80;59.15
54248;BME280;40161;39.768;2.722;2022-11-15T12:36:40;100909.00;;;20.79;59.52
54248;BME280;40161;39.768;2.722;2022-11-15T12:39:09;100926.94;;;20.78;60.82
54248;BME280;40161;39.768;2.722;2022-11-15T13:04:50;100889.13;;;20.77;61.65
54248;BME280;40161;39.768;2.722;2022-11-15T13:07:55;100885.69;;;20.90;61.06
54248;BME280;40161;39.768;2.722;2022-11-15T13:13:09;100842.41;;;20.65;60.92
54248;BME280;40161;39.768;2.722;2022-11-15T13:15:39;100889.69;;;21.05;59.34
54248;BME280;40161;39.768;2.722;2022-11-15T13:18:32;100881.16;;;21.12;58.93
54248;BME280;40161;39.768;2.722;2022-11-15T13:20:59;100854.06;;;20.96;60.72
54248;BME280;40161;39.768;2.722;2022-11-15T13:23:25;100868.00;;;20.96;60.25
54248;BME280;40161;39.768;2.722;2022-11-15T13:33:51;100845.72;;;20.76;61.01
54248;BME280;40161;39.768;2.722;2022-11-15T13:36:43;100840.66;;;20.71;61.01
54248;BME280;40161;39.768;2.722;2022-11-15T13:39:25;100831.97;;;20.69;60.63
54248;BME280;40161;39.768;2.722;2022-11-15T13:41:52;100815.16;;;20.73;60.98
54248;BME280;40161;39.768;2.722;2022-11-15T13:44:21;100822.81;;;20.69;60.55
54248;BME280;40161;39.768;2.722;2022-11-15T13:46:47;100793.38;;;20.48;59.43
54248;BME280;40161;39.768;2.722;2022-11-15T13:49:13;100811.28;;;20.67;59.55
54248;BME280;40161;39.768;2.722;2022-11-15T13:57:32;100797.97;;;20.58;58.94
54248;BME280;40161;39.768;2.722;2022-11-15T14:00:05;100795.78;;;20.66;59.20
54248;BME280;40161;39.768;2.722;2022-11-15T14:02:33;100801.44;;;20.62;59.55
54248;BME280;40161;39.768;2.722;2022-11-15T14:05:15;100813.31;;;20.66;58.92
54248;BME280;40161;39.768;2.722;2022-11-15T14:08:02;100820.47;;;20.83;57.59
54248;BME280;40161;39.768;2.722;2022-11-15T14:10:33;100795.97;;;20.75;57.53
54248;BME280;40161;39.768;2.722;2022-11-15T14:13:00;100792.06;;;20.72;57.09
54248;BME280;40161;39.768;2.722;2022-11-15T14:17:54;100787.84;;;20.64;57.73
54248;BME280;40161;39.768;2.722;2022-11-15T14:20:40;100791.69;;;20.70;57.70
54248;BME280;40161;39.768;2.722;2022-11-15T14:23:23;100780.44;;;20.57;57.09
54248;BME280;40161;39.768;2.722;2022-11-15T14:25:56;100795.78;;;20.66;57.91
54248;BME280;40161;39.768;2.722;2022-11-15T14:30:50;100788.72;;;20.61;58.41
54248;BME280;40161;39.768;2.722;2022-11-15T14:33:30;100771.50;;;20.46;58.87
54248;BME280;40161;39.768;2.722;2022-11-15T14:36:03;100786.38;;;20.59;57.89
54248;BME280;40161;39.768;2.722;2022-11-15T14:38:29;100770.78;;;20.62;57.17
54248;BME280;40161;39.768;2.722;2022-11-15T14:40:55;100754.09;;;20.42;57.42
54248;BME280;40161;39.768;2.722;2022-11-15T14:43:22;100767.06;;;20.49;56.43
54248;BME280;40161;39.768;2.722;2022-11-15T14:45:47;100761.44;;;20.52;56.55
54248;BME280;40161;39.768;2.722;2022-11-15T14:48:13;100747.19;;;20.47;55.01
54248;BME280;40161;39.768;2.722;2022-11-15T14:50:39;100747.56;;;20.49;54.46
54248;BME280;40161;39.768;2.722;2022-11-15T14:53:05;100763.72;;;20.74;52.94
54248;BME280;40161;39.768;2.722;2022-11-15T14:55:32;100752.75;;;20.67;53.82
54248;BME280;40161;39.768;2.722;2022-11-15T14:58:01;100718.56;;;20.46;53.62
54248;BME280;40161;39.768;2.722;2022-11-15T15:00:31;100741.31;;;20.61;52.96
54248;BME280;40161;39.768;2.722;2022-11-15T15:02:57;100700.53;;;20.51;52.58
54248;BME280;40161;39.768;2.722;2022-11-15T15:05:33;100747.16;;;20.67;52.79
54248;BME280;40161;39.768;2.722;2022-11-15T15:07:59;100754.06;;;20.62;52.28
54248;BME280;40161;39.768;2.722;2022-11-15T15:10:29;100724.84;;;20.50;51.48
54248;BME280;40161;39.768;2.722;2022-11-15T15:12:56;100735.59;;;20.52;52.75
54248;BME280;40161;39.768;2.722;2022-11-15T15:15:29;100736.72;;;20.54;52.33
54248;BME280;40161;39.768;2.722;2022-11-15T15:17:56;100747.25;;;20.63;51.77
54248;BME280;40161;39.768;2.722;2022-11-15T15:20:22;100738.53;;;20.61;52.55
54248;BME280;40161;39.768;2.722;2022-11-15T15:22:47;100736.56;;;20.61;52.29
54248;BME280;40161;39.768;2.722;2022-11-15T15:25:31;100733.50;;;20.56;51.86
54248;BME280;40161;39.768;2.722;2022-11-15T15:27:58;100728.97;;;20.62;52.03
54248;BME280;40161;39.768;2.722;2022-11-15T15:30:25;100707.50;;;20.43;52.09
54248;BME280;40161;39.768;2.722;2022-11-15T15:32:51;100719.38;;;20.63;52.04
54248;BME280;40161;39.768;2.722;2022-11-15T15:35:17;100685.19;;;20.43;51.36
54248;BME280;40161;39.768;2.722;2022-11-15T15:37:45;100711.41;;;20.45;52.01
54248;BME280;40161;39.768;2.722;2022-11-15T15:42:39;100718.06;;;20.51;52.07
54248;BME280;40161;39.768;2.722;2022-11-15T15:45:05;100722.13;;;20.47;52.31
54248;BME280;40161;39.768;2.722;2022-11-15T15:47:30;100696.88;;;20.37;52.37
54248;BME280;40161;39.768;2.722;2022-11-15T15:49:56;100712.38;;;20.38;51.33
54248;BME280;40161;39.768;2.722;2022-11-15T15:52:21;100717.66;;;20.33;52.13
54248;BME280;40161;39.768;2.722;2022-11-15T15:54:47;100686.75;;;20.27;51.71
54248;BME280;40161;39.768;2.722;2022-11-15T15:57:13;100731.78;;;20.42;52.15
54248;BME280;40161;39.768;2.722;2022-11-15T15:59:39;100689.88;;;20.29;51.52
54248;BME280;40161;39.768;2.722;2022-11-15T16:02:05;100680.16;;;20.37;51.68
54248;BME280;40161;39.768;2.722;2022-11-15T16:04:30;100709.53;;;20.58;52.38
54248;BME280;40161;39.768;2.722;2022-11-15T16:07:00;100693.13;;;20.44;53.17
54248;BME280;40161;39.768;2.722;2022-11-15T16:09:26;100695.63;;;20.38;53.02
54248;BME280;40161;39.768;2.722;2022-11-15T16:12:11;100709.31;;;20.33;54.21
54248;BME280;40161;39.768;2.722;2022-11-15T16:14:36;100676.81;;;20.10;54.05
54248;BME280;40161;39.768;2.722;2022-11-15T16:17:02;100697.19;;;20.23;54.17
54248;BME280;40161;39.768;2.722;2022-11-15T16:19:28;100693.19;;;20.24;54.65
54248;BME280;40161;39.768;2.722;2022-11-15T16:21:53;100696.06;;;20.21;54.39
54248;BME280;40161;39.768;2.722;2022-11-15T16:24:19;100699.97;;;20.23;53.83
54248;BME280;40161;39.768;2.722;2022-11-15T16:26:46;100674.03;;;20.10;54.44
54248;BME280;40161;39.768;2.722;2022-11-15T16:29:12;100698.75;;;20.24;53.96
54248;BME280;40161;39.768;2.722;2022-11-15T16:31:38;100696.41;;;20.23;54.37
54248;BME280;40161;39.768;2.722;2022-11-15T16:34:04;100666.31;;;19.98;54.72
54248;BME280;40161;39.768;2.722;2022-11-15T16:36:31;100694.56;;;20.16;55.16
54248;BME280;40161;39.768;2.722;2022-11-15T16:38:58;100676.06;;;19.89;55.60
54248;BME280;40161;39.768;2.722;2022-11-15T16:41:25;100708.09;;;19.98;56.72
54248;BME280;40161;39.768;2.722;2022-11-15T16:43:51;100653.72;;;19.53;57.12
54248;BME280;40161;39.768;2.722;2022-11-15T16:46:20;100696.75;;;19.88;56.01
54248;BME280;40161;39.768;2.722;2022-11-15T16:48:45;100694.34;;;19.90;55.65
54248;BME280;40161;39.768;2.722;2022-11-15T16:51:11;100706.25;;;19.91;55.32
54248;BME280;40161;39.768;2.722;2022-11-15T16:53:38;100678.88;;;19.70;56.12
54248;BME280;40161;39.768;2.722;2022-11-15T16:56:03;100705.84;;;19.92;56.08
54248;BME280;40161;39.768;2.722;2022-11-15T16:58:37;100724.81;;;19.98;55.81
54248;BME280;40161;39.768;2.722;2022-11-15T17:01:03;100719.94;;;20.02;54.60
54248;BME280;40161;39.768;2.722;2022-11-15T17:03:29;100716.66;;;20.07;54.35
54248;BME280;40161;39.768;2.722;2022-11-15T17:05:57;100703.75;;;19.97;56.06
54248;BME280;40161;39.768;2.722;2022-11-15T17:08:23;100694.50;;;19.83;55.41
54248;BME280;40161;39.768;2.722;2022-11-15T17:10:49;100701.47;;;19.91;55.62
54248;BME280;40161;39.768;2.722;2022-11-15T17:13:15;100707.13;;;19.88;55.92
54248;BME280;40161;39.768;2.722;2022-11-15T17:15:41;100685.63;;;19.88;55.98
54248;BME280;40161;39.768;2.722;2022-11-15T17:18:10;100708.25;;;19.90;56.65
54248;BME280;40161;39.768;2.722;2022-11-15T17:20:36;100692.78;;;19.70;57.28
54248;BME280;40161;39.768;2.722;2022-11-15T17:23:01;100693.19;;;19.68;56.38
54248;BME280;40161;39.768;2.722;2022-11-15T17:25:27;100661.22;;;19.36;57.37
54248;BME280;40161;39.768;2.722;2022-11-15T17:27:53;100702.16;;;19.96;55.63
54248;BME280;40161;39.768;2.722;2022-11-15T17:30:20;100689.25;;;19.85;55.48
54248;BME280;40161;39.768;2.722;2022-11-15T17:32:45;100716.97;;;19.92;56.47
54248;BME280;40161;39.768;2.722;2022-11-15T17:35:12;100694.41;;;19.87;56.45
54248;BME280;40161;39.768;2.722;2022-11-15T17:37:37;100701.53;;;19.88;56.52
54248;BME280;40161;39.768;2.722;2022-11-15T17:40:03;100709.13;;;19.87;56.12
54248;BME280;40161;39.768;2.722;2022-11-15T17:42:29;100714.22;;;20.09;55.41
54248;BME280;40161;39.768;2.722;2022-11-15T17:44:54;100697.81;;;19.95;56.36
54248;BME280;40161;39.768;2.722;2022-11-15T17:47:20;100703.06;;;19.92;56.75
54248;BME280;40161;39.768;2.722;2022-11-15T17:49:46;100713.06;;;19.90;56.60
54248;BME280;40161;39.768;2.722;2022-11-15T17:52:11;100711.81;;;19.91;56.71
54248;BME280;40161;39.768;2.722;2022-11-15T17:54:37;100682.34;;;19.74;57.05
54248;BME280;40161;39.768;2.722;2022-11-15T17:57:02;100712.59;;;19.91;57.19
54248;BME280;40161;39.768;2.722;2022-11-15T17:59:28;100694.19;;;19.78;57.51
54248;BME280;40161;39.768;2.722;2022-11-15T18:01:53;100703.00;;;19.76;57.90
54248;BME280;40161;39.768;2.722;2022-11-15T18:04:19;100697.50;;;19.73;58.17
54248;BME280;40161;39.768;2.722;2022-11-15T18:06:44;100665.31;;;19.52;58.19
54248;BME280;40161;39.768;2.722;2022-11-15T18:09:10;100628.41;;;19.28;57.12
54248;BME280;40161;39.768;2.722;2022-11-15T18:11:40;100701.13;;;19.89;56.80
54248;BME280;40161;39.768;2.722;2022-11-15T18:14:09;100711.41;;;19.92;56.95
54248;BME280;40161;39.768;2.722;2022-11-15T18:16:36;100708.88;;;19.98;56.05
54248;BME280;40161;39.768;2.722;2022-11-15T18:19:03;100643.81;;;19.52;56.27
54248;BME280;40161;39.768;2.722;2022-11-15T18:21:42;100700.06;;;19.83;56.59
54248;BME280;40161;39.768;2.722;2022-11-15T18:24:35;100697.97;;;19.87;56.83
54248;BME280;40161;39.768;2.722;2022-11-15T18:27:04;100671.50;;;19.79;55.83
54248;BME280;40161;39.768;2.722;2022-11-15T18:29:30;100717.69;;;19.97;56.39
54248;BME280;40161;39.768;2.722;2022-11-15T18:31:58;100702.84;;;19.83;56.28
54248;BME280;40161;39.768;2.722;2022-11-15T18:34:25;100694.81;;;19.85;55.38
54248;BME280;40161;39.768;2.722;2022-11-15T18:36:56;100701.47;;;19.91;56.40
54248;BME280;40161;39.768;2.722;2022-11-15T18:39:21;100702.31;;;19.88;56.49
54248;BME280;40161;39.768;2.722;2022-11-15T18:41:47;100669.75;;;19.69;55.73
54248;BME280;40161;39.768;2.722;2022-11-15T18:44:14;100692.34;;;19.91;55.91
54248;BME280;40161;39.768;2.722;2022-11-15T18:46:39;100674.22;;;19.83;55.32
54248;BME280;40161;39.768;2.722;2022-11-15T18:49:07;100643.75;;;19.56;56.46
54248;BME280;40161;39.768;2.722;2022-11-15T18:51:34;100663.94;;;19.60;56.65
54248;BME280;40161;39.768;2.722;2022-11-15T18:54:02;100646.53;;;19.56;56.33
54248;BME280;40161;39.768;2.722;2022-11-15T18:56:30;100687.00;;;19.80;56.44
54248;BME280;40161;39.768;2.722;2022-11-15T18:58:57;100678.63;;;19.80;56.44
54248;BME280;40161;39.768;2.722;2022-11-15T19:01:25;100637.59;;;19.64;55.55
54248;BME280;40161;39.768;2.722;2022-11-15T19:03:53;100673.00;;;19.84;56.04
54248;BME280;40161;39.768;2.722;2022-11-15T19:06:21;100669.66;;;19.73;56.56
54248;BME280;40161;39.768;2.722;2022-11-15T19:08:49;100623.69;;;19.44;56.99
54248;BME280;40161;39.768;2.722;2022-11-15T19:11:17;100678.72;;;19.77;56.76
54248;BME280;40161;39.768;2.722;2022-11-15T19:13:43;100675.66;;;19.71;57.44
54248;BME280;40161;39.768;2.722;2022-11-15T19:16:14;100683.72;;;19.65;57.52
54248;BME280;40161;39.768;2.722;2022-11-15T19:18:40;100665.09;;;19.82;54.72
54248;BME280;40161;39.768;2.722;2022-11-15T19:21:09;100683.25;;;20.07;55.35
54248;BME280;40161;39.768;2.722;2022-11-15T19:23:36;100601.22;;;19.55;54.67
54248;BME280;40161;39.768;2.722;2022-11-15T19:26:03;100694.97;;;19.98;55.32
54248;BME280;40161;39.768;2.722;2022-11-15T19:28:29;100695.81;;;19.95;54.87
54248;BME280;40161;39.768;2.722;2022-11-15T19:31:13;100692.63;;;19.97;54.41
54248;BME280;40161;39.768;2.722;2022-11-15T19:33:40;100665.94;;;19.79;54.92
54248;BME280;40161;39.768;2.722;2022-11-15T19:36:12;100659.44;;;20.02;53.90
54248;BME280;40161;39.768;2.722;2022-11-15T19:38:38;100673.81;;;20.01;55.08
54248;BME280;40161;39.768;2.722;2022-11-15T19:41:06;100692.94;;;19.99;54.83
54248;BME280;40161;39.768;2.722;2022-11-15T19:43:32;100682.78;;;20.08;55.06
54248;BME280;40161;39.768;2.722;2022-11-15T19:46:00;100648.34;;;20.19;53.75
54248;BME280;40161;39.768;2.722;2022-11-15T19:48:26;100676.81;;;20.26;53.77
54248;BME280;40161;39.768;2.722;2022-11-15T19:50:52;100678.56;;;20.20;54.33
54248;BME280;40161;39.768;2.722;2022-11-15T19:53:18;100660.72;;;20.18;54.61
54248;BME280;40161;39.768;2.722;2022-11-15T19:55:54;100670.34;;;20.13;54.68
54248;BME280;40161;39.768;2.722;2022-11-15T19:58:21;100667.72;;;20.06;54.40
54248;BME280;40161;39.768;2.722;2022-11-15T20:00:46;100682.09;;;20.04;54.94
54248;BME280;40161;39.768;2.722;2022-11-15T20:03:12;100671.13;;;19.97;54.16
54248;BME280;40161;39.768;2.722;2022-11-15T20:05:37;100642.19;;;19.91;54.06
54248;BME280;40161;39.768;2.722;2022-11-15T20:08:03;100674.13;;;20.39;53.15
54248;BME280;40161;39.768;2.722;2022-11-15T20:10:28;100658.63;;;20.22;53.32
54248;BME280;40161;39.768;2.722;2022-11-15T20:12:54;100635.31;;;19.96;53.70
54248;BME280;40161;39.768;2.722;2022-11-15T20:15:19;100602.84;;;19.73;54.15
54248;BME280;40161;39.768;2.722;2022-11-15T20:17:45;100682.53;;;20.19;54.72
54248;BME280;40161;39.768;2.722;2022-11-15T20:20:10;100633.16;;;19.87;55.07
54248;BME280;40161;39.768;2.722;2022-11-15T20:22:36;100674.44;;;20.08;54.43
54248;BME280;40161;39.768;2.722;2022-11-15T20:25:02;100658.84;;;19.95;54.95
54248;BME280;40161;39.768;2.722;2022-11-15T20:27:28;100687.06;;;20.13;55.61
54248;BME280;40161;39.768;2.722;2022-11-15T20:29:53;100671.97;;;19.94;55.69
54248;BME280;40161;39.768;2.722;2022-11-15T20:32:19;100627.66;;;19.83;54.51
54248;BME280;40161;39.768;2.722;2022-11-15T20:34:44;100675.09;;;20.49;53.29
54248;BME280;40161;39.768;2.722;2022-11-15T20:37:11;100659.16;;;20.49;52.94
54248;BME280;40161;39.768;2.722;2022-11-15T20:39:36;100659.84;;;20.37;53.85
54248;BME280;40161;39.768;2.722;2022-11-15T20:42:03;100663.75;;;20.23;54.23
54248;BME280;40161;39.768;2.722;2022-11-15T20:44:29;100654.28;;;20.21;54.25
54248;BME280;40161;39.768;2.722;2022-11-15T20:46:54;100664.63;;;20.20;54.55
54248;BME280;40161;39.768;2.722;2022-11-15T20:49:20;100655.13;;;20.18;54.46
54248;BME280;40161;39.768;2.722;2022-11-15T20:51:46;100658.97;;;20.40;53.79
54248;BME280;40161;39.768;2.722;2022-11-15T20:54:11;100630.31;;;20.07;54.04
54248;BME280;40161;39.768;2.722;2022-11-15T20:56:37;100657.84;;;20.37;53.69
54248;BME280;40161;39.768;2.722;2022-11-15T20:59:02;100636.66;;;20.40;54.19
54248;BME280;40161;39.768;2.722;2022-11-15T21:01:28;100644.09;;;20.30;54.68
54248;BME280;40161;39.768;2.722;2022-11-15T21:03:55;100641.72;;;20.29;54.14
54248;BME280;40161;39.768;2.722;2022-11-15T21:06:21;100646.53;;;20.45;54.33
54248;BME280;40161;39.768;2.722;2022-11-15T21:08:49;100630.41;;;20.36;53.81
54248;BME280;40161;39.768;2.722;2022-11-15T21:11:33;100613.84;;;20.12;54.21
54248;BME280;40161;39.768;2.722;2022-11-15T21:14:17;100615.94;;;20.08;54.74
54248;BME280;40161;39.768;2.722;2022-11-15T21:16:42;100650.16;;;20.09;55.29